Hlavní strana
METAR-TAF:

METAR-TAF

Letiště :

Preveza, Řecko

zeměpisná šířka: 38-37N, zeměpisná délka: 020-46E, výška: 4 m

Aktuální stav počasí

Zpráva byla vytvořena před 27 minutami, v 04:20 UTC
Východoseverovýchodní vítr 6 kt
Teplota 10°C
Vlhkost vzduchu 87%
Tlak 1028 hPa
Viditelnost 10 km a více
Skoro jasno ve výšce 2000 ft
Oblačno až skoro zataženo ve výšce 7000 ft

METAR: LGPZ 250420Z 06006KT 9999 FEW020 BKN070 10/08 Q1028

Čas: 06:47 (04:47 UTC)

Předpověď počasí

Zpráva byla vytvořena před 5 hodinami a 47 minutami, v 23:00 UTC
Předpověď platná od 25 v 00 UTC do 25 v 24 UTC
Východoseverovýchodní vítr 8 kt
Viditelnost 10 km a více
Skoro jasno ve výšce 2000 ft
Oblačno až skoro zataženo ve výšce 7000 ft

TAF: LGPZ 242300Z 2500/2524 06008KT 9999 FEW020 BKN070

Stav a předpovědi počasí z více než 4 000 letišť (zprávy METAR a TAF).

Červené a žluté tečky na mapě představují dostupné meteorologické stanice.

Když kurzor umístíte na tečku, zobrazí se název stanice.

Pak kliknutím zobrazíte stav a předpověď počasí.

Chcete-li změnit mapu, kliknutím na zelené tlačítko se znaménkem +mapu přiblížíte, kliknutím na zelené tlačítko se znaménkem – mapu oddálíte a kliknutím na zelené šipky přejdete na sousední mapy.


METAR-TAF: